createdAt,value
2023-05-13T00:00:14.273Z,36.37
2023-05-13T00:01:14.263Z,36.37
2023-05-13T00:02:14.280Z,36.37
2023-05-13T00:03:14.362Z,36.37
2023-05-13T00:04:14.231Z,36.37
2023-05-13T00:05:14.211Z,36.37
2023-05-13T00:06:14.238Z,36.37
2023-05-13T00:07:14.199Z,36.37
2023-05-13T00:08:14.206Z,36.37
2023-05-13T00:09:14.305Z,36.37
2023-05-13T00:10:14.180Z,36.37
2023-05-13T00:11:14.157Z,36.37
2023-05-13T00:12:14.145Z,36.27
2023-05-13T00:13:14.141Z,36.27
2023-05-13T00:14:14.130Z,36.27
2023-05-13T00:15:14.405Z,36.37
2023-05-13T00:16:14.116Z,36.27
2023-05-13T00:17:14.091Z,36.27
2023-05-13T00:18:14.087Z,36.27
2023-05-13T00:19:14.223Z,36.27
2023-05-13T00:20:14.065Z,36.27
2023-05-13T00:21:14.172Z,36.27
2023-05-13T00:22:14.040Z,36.27
2023-05-13T00:23:14.033Z,36.27
2023-05-13T00:24:14.038Z,36.27
2023-05-13T00:25:14.009Z,36.27
2023-05-13T00:26:13.997Z,36.27
2023-05-13T00:27:14.121Z,36.27
2023-05-13T00:28:13.988Z,36.27
2023-05-13T00:29:13.966Z,36.27
2023-05-13T00:30:13.972Z,36.27
2023-05-13T00:31:13.979Z,36.27
2023-05-13T00:32:13.944Z,36.27
2023-05-13T00:33:14.044Z,36.27
2023-05-13T00:34:13.932Z,36.27
2023-05-13T00:35:13.911Z,36.27
2023-05-13T00:36:13.895Z,36.27
2023-05-13T00:37:13.887Z,36.27
2023-05-13T00:38:13.882Z,36.27
2023-05-13T00:39:14.011Z,36.27
2023-05-13T00:40:13.860Z,36.27
2023-05-13T00:41:13.847Z,36.27
2023-05-13T00:42:13.825Z,36.27
2023-05-13T00:43:13.818Z,36.19
2023-05-13T00:44:14.616Z,36.18
2023-05-13T00:45:13.829Z,36.18
2023-05-13T00:46:13.825Z,36.18
2023-05-13T00:47:13.776Z,36.18
2023-05-13T00:48:13.775Z,36.18
2023-05-13T00:49:13.757Z,36.18
2023-05-13T00:50:13.753Z,36.19
2023-05-13T00:51:13.890Z,36.19
2023-05-13T00:52:13.734Z,36.19
2023-05-13T00:53:13.716Z,36.18
2023-05-13T00:54:13.702Z,36.19
2023-05-13T00:55:13.694Z,36.19
2023-05-13T00:56:13.682Z,36.19
2023-05-13T00:57:13.823Z,36.19
2023-05-13T00:58:13.678Z,36.19
2023-05-13T00:59:13.652Z,36.19
2023-05-13T01:00:13.649Z,36.19
2023-05-13T01:01:13.633Z,36.19
2023-05-13T01:02:13.640Z,36.19
2023-05-13T01:03:13.892Z,36.19
2023-05-13T01:04:13.608Z,36.19
2023-05-13T01:05:13.585Z,36.19
2023-05-13T01:06:13.575Z,36.19
2023-05-13T01:07:13.569Z,36.19
2023-05-13T01:08:13.556Z,36.19
2023-05-13T01:09:13.695Z,36.19
2023-05-13T01:10:13.539Z,36.19
2023-05-13T01:11:13.526Z,36.19
2023-05-13T01:12:13.515Z,36.09
2023-05-13T01:13:13.501Z,36.19
2023-05-13T01:14:13.490Z,36.09
2023-05-13T01:15:13.609Z,36.09
2023-05-13T01:16:13.510Z,36.09
2023-05-13T01:17:13.451Z,36.19
2023-05-13T01:18:13.458Z,36.09
2023-05-13T01:19:13.459Z,36.19
2023-05-13T01:20:13.451Z,36.09
2023-05-13T01:21:13.558Z,36.09
2023-05-13T01:22:13.400Z,36.09
2023-05-13T01:23:13.400Z,36.09
2023-05-13T01:24:13.414Z,36.09
2023-05-13T01:25:13.368Z,36.09
2023-05-13T01:26:13.363Z,36.09
2023-05-13T01:27:13.507Z,36.09
2023-05-13T01:28:13.345Z,36.09
2023-05-13T01:29:13.332Z,36.09
2023-05-13T01:30:13.326Z,36.09
2023-05-13T01:31:13.330Z,36.09
2023-05-13T01:32:13.293Z,36.09
2023-05-13T01:33:13.432Z,36.09
2023-05-13T01:34:13.281Z,36.09
2023-05-13T01:35:13.267Z,36.09
2023-05-13T01:36:13.265Z,36.09
2023-05-13T01:37:13.241Z,36.09
2023-05-13T01:38:13.234Z,36.09
2023-05-13T01:39:13.376Z,36.09
2023-05-13T01:40:28.251Z,36.09
2023-05-13T01:41:13.205Z,36.09
2023-05-13T01:42:13.206Z,36.09
2023-05-13T01:43:13.182Z,36.09
2023-05-13T01:44:13.178Z,36.09
2023-05-13T01:45:13.302Z,36.09
2023-05-13T01:46:13.206Z,36.09
2023-05-13T01:47:13.132Z,36.09
2023-05-13T01:48:13.130Z,36.09
2023-05-13T01:49:13.118Z,35.99
2023-05-13T01:50:13.129Z,36.09
2023-05-13T01:51:13.136Z,36.09
2023-05-13T01:52:13.097Z,36.09
2023-05-13T01:53:13.069Z,35.99
2023-05-13T01:54:13.066Z,35.99
2023-05-13T01:55:13.055Z,36.09
2023-05-13T01:56:13.055Z,36.09
2023-05-13T01:57:13.161Z,35.99
2023-05-13T01:58:13.024Z,35.99
2023-05-13T01:59:13.011Z,35.99
2023-05-13T02:00:13.001Z,35.99
2023-05-13T02:01:12.990Z,35.99
2023-05-13T02:02:13.001Z,35.99
2023-05-13T02:03:13.184Z,35.99
2023-05-13T02:04:12.959Z,36.09
2023-05-13T02:05:12.976Z,36.09
2023-05-13T02:06:12.940Z,35.99
2023-05-13T02:07:12.954Z,35.99
2023-05-13T02:08:12.926Z,35.99
2023-05-13T02:09:12.945Z,35.99
2023-05-13T02:10:12.912Z,35.99
2023-05-13T02:11:12.881Z,35.99
2023-05-13T02:12:12.885Z,35.99
2023-05-13T02:13:12.866Z,35.99
2023-05-13T02:14:12.855Z,35.99
2023-05-13T02:15:13.002Z,35.99
2023-05-13T02:16:12.850Z,35.99
2023-05-13T02:17:12.831Z,35.99
2023-05-13T02:18:12.908Z,35.99
2023-05-13T02:19:12.852Z,35.99
2023-05-13T02:20:12.861Z,35.99
2023-05-13T02:21:12.940Z,35.99
2023-05-13T02:22:12.770Z,35.99
2023-05-13T02:23:12.752Z,35.99
2023-05-13T02:24:12.751Z,35.99
2023-05-13T02:25:12.748Z,35.99
2023-05-13T02:26:12.767Z,35.99
2023-05-13T02:27:12.992Z,35.99
2023-05-13T02:28:12.729Z,35.99
2023-05-13T02:29:12.692Z,35.99
2023-05-13T02:30:12.686Z,35.99
2023-05-13T02:31:12.673Z,35.99
2023-05-13T02:32:12.718Z,35.99
2023-05-13T02:33:12.875Z,35.99
2023-05-13T02:34:12.648Z,35.99
2023-05-13T02:35:12.642Z,35.89
2023-05-13T02:36:12.644Z,35.89
2023-05-13T02:37:12.601Z,35.89
2023-05-13T02:38:12.607Z,35.89
2023-05-13T02:39:12.736Z,35.89
2023-05-13T02:40:12.603Z,35.89
2023-05-13T02:41:12.574Z,35.89
2023-05-13T02:42:12.570Z,35.89
2023-05-13T02:43:12.548Z,35.89
2023-05-13T02:44:12.540Z,35.89
2023-05-13T02:45:12.678Z,35.89
2023-05-13T02:46:12.543Z,35.89
2023-05-13T02:47:12.509Z,35.89
2023-05-13T02:48:12.503Z,35.89
2023-05-13T02:49:12.487Z,35.89
2023-05-13T02:50:12.480Z,35.89
2023-05-13T02:51:12.625Z,35.89
2023-05-13T02:52:12.452Z,35.89
2023-05-13T02:53:12.458Z,35.89
2023-05-13T02:54:12.438Z,35.89
2023-05-13T02:55:12.633Z,35.89
2023-05-13T02:56:12.414Z,35.89
2023-05-13T02:57:12.597Z,35.89
2023-05-13T02:58:12.394Z,35.89
2023-05-13T02:59:12.393Z,35.89
2023-05-13T03:00:12.378Z,35.89
2023-05-13T03:01:12.382Z,35.89
2023-05-13T03:02:12.385Z,35.89
2023-05-13T03:03:12.617Z,35.89
2023-05-13T03:04:12.342Z,35.89
2023-05-13T03:05:12.323Z,35.89
2023-05-13T03:06:12.314Z,35.89
2023-05-13T03:07:12.305Z,35.89
2023-05-13T03:08:12.227Z,35.79
2023-05-13T03:09:12.522Z,35.89
2023-05-13T03:10:12.275Z,35.79
2023-05-13T03:11:12.263Z,35.89
2023-05-13T03:12:12.244Z,35.79
2023-05-13T03:13:12.246Z,35.79
2023-05-13T03:14:12.223Z,35.79
2023-05-13T03:15:12.370Z,35.79
2023-05-13T03:16:12.246Z,35.79
2023-05-13T03:17:12.170Z,35.79
2023-05-13T03:18:12.144Z,35.79
2023-05-13T03:19:12.155Z,35.79
2023-05-13T03:20:12.116Z,35.79
2023-05-13T03:21:12.250Z,35.79
2023-05-13T03:22:12.085Z,35.79
2023-05-13T03:23:12.092Z,35.81
2023-05-13T03:24:12.059Z,35.81
2023-05-13T03:25:12.104Z,35.81
2023-05-13T03:26:12.054Z,35.81
2023-05-13T03:27:12.190Z,35.81
2023-05-13T03:28:12.030Z,35.81
2023-05-13T03:29:12.031Z,35.81
2023-05-13T03:30:12.001Z,35.81
2023-05-13T03:31:12.023Z,35.81
2023-05-13T03:32:11.997Z,35.81
2023-05-13T03:33:12.119Z,35.81
2023-05-13T03:34:12.009Z,35.81
2023-05-13T03:35:12.013Z,35.81
2023-05-13T03:36:11.991Z,35.81
2023-05-13T03:37:11.983Z,35.81
2023-05-13T03:38:12.004Z,35.81
2023-05-13T03:39:12.093Z,35.81
2023-05-13T03:40:11.950Z,35.81
2023-05-13T03:41:11.946Z,35.81
2023-05-13T03:42:11.945Z,35.81
2023-05-13T03:43:11.889Z,35.81
2023-05-13T03:44:11.854Z,35.81
2023-05-13T03:45:11.993Z,35.81
2023-05-13T03:46:11.876Z,35.81
2023-05-13T03:47:11.866Z,35.81
2023-05-13T03:48:11.824Z,35.81
2023-05-13T03:49:11.810Z,35.81
2023-05-13T03:50:11.792Z,35.81
2023-05-13T03:51:11.936Z,35.81
2023-05-13T03:52:11.769Z,35.81
2023-05-13T03:53:11.834Z,35.81
2023-05-13T03:54:11.748Z,35.81
2023-05-13T03:55:11.747Z,35.81
2023-05-13T03:56:11.731Z,35.81
2023-05-13T03:57:11.880Z,35.81
2023-05-13T03:58:11.715Z,35.81
2023-05-13T03:59:11.699Z,35.71
2023-05-13T04:00:11.676Z,35.81
2023-05-13T04:01:11.687Z,35.81
2023-05-13T04:02:11.692Z,35.81
2023-05-13T04:03:11.899Z,35.81
2023-05-13T04:04:11.660Z,35.81
2023-05-13T04:05:11.669Z,35.71
2023-05-13T04:06:11.619Z,35.81
2023-05-13T04:07:11.612Z,35.81
2023-05-13T04:08:11.600Z,35.81
2023-05-13T04:09:11.640Z,35.81
2023-05-13T04:10:14.608Z,35.81
2023-05-13T04:11:11.585Z,35.81
2023-05-13T04:12:11.565Z,35.71
2023-05-13T04:13:11.574Z,35.71
2023-05-13T04:14:11.534Z,35.71
2023-05-13T04:15:11.677Z,35.81
2023-05-13T04:16:11.518Z,35.81
2023-05-13T04:17:11.563Z,35.71
2023-05-13T04:18:11.506Z,35.71
2023-05-13T04:19:11.557Z,35.71
2023-05-13T04:20:11.478Z,35.71
2023-05-13T04:21:11.600Z,35.71
2023-05-13T04:22:11.452Z,35.71
2023-05-13T04:23:11.452Z,35.71
2023-05-13T04:24:11.430Z,35.71
2023-05-13T04:25:11.429Z,35.71
2023-05-13T04:26:11.414Z,35.71
2023-05-13T04:27:11.538Z,35.71
2023-05-13T04:28:11.391Z,35.71
2023-05-13T04:29:11.381Z,35.71
2023-05-13T04:30:11.371Z,35.71
2023-05-13T04:31:11.362Z,35.71
2023-05-13T04:32:11.471Z,35.71
2023-05-13T04:33:11.505Z,35.71
2023-05-13T04:34:11.326Z,35.71
2023-05-13T04:35:11.322Z,35.71
2023-05-13T04:36:12.992Z,35.71
2023-05-13T04:37:11.331Z,35.71
2023-05-13T04:38:11.282Z,35.71
2023-05-13T04:39:11.424Z,35.71
2023-05-13T04:40:11.266Z,35.61
2023-05-13T04:41:11.253Z,35.51
2023-05-13T04:42:11.241Z,35.31
2023-05-13T04:43:11.247Z,35.11
2023-05-13T04:44:11.219Z,34.91
2023-05-13T04:45:11.390Z,34.91
2023-05-13T04:46:11.220Z,34.91
2023-05-13T04:47:11.215Z,34.81
2023-05-13T04:48:11.208Z,34.91
2023-05-13T04:49:11.187Z,34.91
2023-05-13T04:50:11.168Z,34.91
2023-05-13T04:51:11.305Z,34.91
2023-05-13T04:52:11.133Z,34.91
2023-05-13T04:53:11.128Z,35.01
2023-05-13T04:54:11.137Z,35.01
2023-05-13T04:55:11.106Z,35.01
2023-05-13T04:56:11.111Z,35.03
2023-05-13T04:57:11.255Z,35.13
2023-05-13T04:58:11.073Z,35.03
2023-05-13T04:59:11.074Z,35.13
2023-05-13T05:00:11.050Z,35.13
2023-05-13T05:01:11.091Z,35.13
2023-05-13T05:02:11.030Z,35.13
2023-05-13T05:04:21.656Z,35.23
2023-05-13T05:05:22.324Z,35.23
2023-05-13T05:06:22.314Z,35.23
2023-05-13T05:07:22.297Z,35.23
2023-05-13T05:08:22.299Z,35.23
2023-05-13T05:09:22.424Z,35.23
2023-05-13T05:10:22.429Z,35.23
2023-05-13T05:11:22.260Z,35.23
2023-05-13T05:12:22.255Z,35.33
2023-05-13T05:13:22.236Z,35.33
2023-05-13T05:14:22.223Z,35.33
2023-05-13T05:15:22.378Z,35.33
2023-05-13T05:16:22.208Z,35.33
2023-05-13T05:17:22.236Z,35.33
2023-05-13T05:18:22.247Z,35.33
2023-05-13T05:19:22.218Z,35.33
2023-05-13T05:20:22.360Z,35.33
2023-05-13T05:21:22.304Z,35.33
2023-05-13T05:22:22.142Z,35.42
2023-05-13T05:23:22.137Z,35.42
2023-05-13T05:24:22.132Z,35.53
2023-05-13T05:25:22.123Z,35.42
2023-05-13T05:26:22.130Z,35.53
2023-05-13T05:27:22.245Z,35.53
2023-05-13T05:28:22.083Z,35.53
2023-05-13T05:29:22.065Z,35.53
2023-05-13T05:30:22.251Z,35.53
2023-05-13T05:31:22.087Z,35.53
2023-05-13T05:32:22.090Z,35.53
2023-05-13T05:33:22.191Z,35.53
2023-05-13T05:34:22.042Z,35.53
2023-05-13T05:35:22.017Z,35.53
2023-05-13T05:36:21.997Z,35.53
2023-05-13T05:37:21.990Z,35.53
2023-05-13T05:38:21.983Z,35.53
2023-05-13T05:39:22.158Z,35.53
2023-05-13T05:40:22.208Z,35.53
2023-05-13T05:41:21.949Z,35.53
2023-05-13T05:42:21.930Z,35.53
2023-05-13T05:43:21.922Z,35.53
2023-05-13T05:44:21.917Z,35.53
2023-05-13T05:45:22.057Z,35.53
2023-05-13T05:46:21.933Z,35.53
2023-05-13T05:47:21.931Z,35.63
2023-05-13T05:48:21.882Z,35.63
2023-05-13T05:49:21.869Z,35.63
2023-05-13T05:50:21.987Z,35.63
2023-05-13T05:51:21.966Z,35.63
2023-05-13T05:52:21.826Z,35.72
2023-05-13T05:53:21.821Z,35.72
2023-05-13T05:54:21.824Z,35.72
2023-05-13T05:55:21.789Z,35.83
2023-05-13T05:56:21.809Z,35.83
2023-05-13T05:57:21.832Z,35.83
2023-05-13T05:58:21.789Z,35.83
2023-05-13T05:59:21.760Z,35.63
2023-05-13T06:00:22.059Z,35.13
2023-05-13T06:01:21.733Z,34.63
2023-05-13T06:02:21.759Z,34.23
2023-05-13T06:03:28.444Z,33.63
2023-05-13T06:04:21.738Z,33.23
2023-05-13T06:05:21.693Z,33.13
2023-05-13T06:06:21.684Z,33.03
2023-05-13T06:07:21.667Z,32.83
2023-05-13T06:08:21.654Z,32.83
2023-05-13T06:09:21.695Z,32.83
2023-05-13T06:10:21.921Z,32.73
2023-05-13T06:11:21.631Z,32.73
2023-05-13T06:12:21.633Z,32.73
2023-05-13T06:13:21.611Z,32.65
2023-05-13T06:14:21.600Z,32.65
2023-05-13T06:15:21.752Z,32.75
2023-05-13T06:16:21.622Z,32.75
2023-05-13T06:17:21.573Z,32.85
2023-05-13T06:18:21.571Z,33.04
2023-05-13T06:19:21.622Z,33.25
2023-05-13T06:20:21.804Z,33.25
2023-05-13T06:21:21.810Z,33.54
2023-05-13T06:22:21.519Z,33.65
2023-05-13T06:23:21.503Z,33.65
2023-05-13T06:24:21.504Z,33.75
2023-05-13T06:25:21.489Z,33.84
2023-05-13T06:26:21.470Z,33.95
2023-05-13T06:27:21.628Z,34.05
2023-05-13T06:28:21.478Z,34.05
2023-05-13T06:29:21.439Z,34.14
2023-05-13T06:30:21.867Z,34.14
2023-05-13T06:31:21.445Z,34.25
2023-05-13T06:32:21.467Z,34.34
2023-05-13T06:33:21.587Z,34.34
2023-05-13T06:34:21.387Z,34.44
2023-05-13T06:35:21.374Z,34.44
2023-05-13T06:36:21.371Z,34.44
2023-05-13T06:37:21.361Z,34.55
2023-05-13T06:38:21.359Z,34.64
2023-05-13T06:39:21.498Z,34.64
2023-05-13T06:40:21.529Z,34.75
2023-05-13T06:41:21.315Z,34.75
2023-05-13T06:42:21.310Z,34.75
2023-05-13T06:43:21.293Z,34.84
2023-05-13T06:44:21.290Z,34.84
2023-05-13T06:45:21.294Z,34.94
2023-05-13T06:46:21.345Z,34.94
2023-05-13T06:47:22.508Z,34.94
2023-05-13T06:48:21.250Z,35.05
2023-05-13T06:49:21.224Z,35.05
2023-05-13T06:50:21.549Z,34.94
2023-05-13T06:51:21.386Z,34.75
2023-05-13T06:52:21.211Z,34.55
2023-05-13T06:53:21.216Z,34.34
2023-05-13T06:54:21.203Z,34.25
2023-05-13T06:55:21.178Z,33.95
2023-05-13T06:56:21.180Z,33.95
2023-05-13T06:57:25.216Z,34.05
2023-05-13T06:58:21.151Z,33.84
2023-05-13T06:59:21.144Z,34.05
2023-05-13T07:00:21.316Z,34.05
2023-05-13T07:01:21.165Z,33.84
2023-05-13T07:02:21.146Z,33.84
2023-05-13T07:03:21.178Z,33.84
2023-05-13T07:04:21.093Z,33.75
2023-05-13T07:05:21.058Z,33.54
2023-05-13T07:06:21.058Z,33.35
2023-05-13T07:07:21.047Z,33.45
2023-05-13T07:08:21.034Z,33.35
2023-05-13T07:09:21.071Z,33.25
2023-05-13T07:10:21.245Z,33.25
2023-05-13T07:11:21.101Z,33.25
2023-05-13T07:12:20.992Z,33.35
2023-05-13T07:13:20.995Z,33.25
2023-05-13T07:14:20.972Z,33.25
2023-05-13T07:15:21.359Z,33.15
2023-05-13T07:16:20.955Z,33.15
2023-05-13T07:17:21.014Z,33.15
2023-05-13T07:18:20.978Z,32.95
2023-05-13T07:19:20.945Z,32.65
2023-05-13T07:20:21.009Z,32.45
2023-05-13T07:21:21.051Z,32.35
2023-05-13T07:22:20.881Z,32.65
2023-05-13T07:23:20.867Z,32.55
2023-05-13T07:24:20.871Z,32.45
2023-05-13T07:25:20.847Z,32.45
2023-05-13T07:26:20.841Z,32.55
2023-05-13T07:27:20.978Z,32.65
2023-05-13T07:28:20.862Z,32.55
2023-05-13T07:29:20.806Z,32.65
2023-05-13T07:30:21.009Z,32.55
2023-05-13T07:31:20.844Z,32.45
2023-05-13T07:32:20.803Z,32.55
2023-05-13T07:33:20.948Z,32.45
2023-05-13T07:34:20.773Z,32.35
2023-05-13T07:35:21.002Z,32.35
2023-05-13T07:36:20.741Z,32.25
2023-05-13T07:37:20.722Z,32.15
2023-05-13T07:38:20.719Z,32.05
2023-05-13T07:39:20.854Z,32.05
2023-05-13T07:40:21.181Z,32.15
2023-05-13T07:41:20.679Z,32.15
2023-05-13T07:42:20.683Z,32.15
2023-05-13T07:43:20.659Z,32.25
2023-05-13T07:44:20.664Z,32.25
2023-05-13T07:45:20.999Z,32.05
2023-05-13T07:46:20.717Z,32.05
2023-05-13T07:47:20.858Z,31.95
2023-05-13T07:48:20.607Z,32.05
2023-05-13T07:49:20.599Z,32.05
2023-05-13T07:50:20.597Z,31.95
2023-05-13T07:51:20.617Z,31.85
2023-05-13T07:52:20.577Z,31.95
2023-05-13T07:53:20.560Z,31.85
2023-05-13T07:54:20.556Z,31.85
2023-05-13T07:55:20.734Z,31.95
2023-05-13T07:56:20.536Z,31.95
2023-05-13T07:57:20.652Z,32.05
2023-05-13T07:58:20.528Z,31.95
2023-05-13T07:59:20.497Z,31.95
2023-05-13T08:00:20.492Z,31.95
2023-05-13T08:01:20.477Z,31.95
2023-05-13T08:02:20.533Z,31.85
2023-05-13T08:03:21.162Z,31.75
2023-05-13T08:04:20.800Z,31.75
2023-05-13T08:05:20.686Z,31.85
2023-05-13T08:06:20.432Z,31.75
2023-05-13T08:07:20.419Z,31.75
2023-05-13T08:08:20.422Z,31.85
2023-05-13T08:09:20.548Z,31.85
2023-05-13T08:10:20.390Z,31.85
2023-05-13T08:11:20.384Z,31.95
2023-05-13T08:12:20.364Z,31.85
2023-05-13T08:13:20.354Z,31.85
2023-05-13T08:14:20.340Z,31.85
2023-05-13T08:15:20.511Z,31.95
2023-05-13T08:16:20.355Z,32.05
2023-05-13T08:17:20.460Z,32.05
2023-05-13T08:18:20.301Z,32.05
2023-05-13T08:19:20.389Z,32.15
2023-05-13T08:20:20.281Z,32.05
2023-05-13T08:21:20.329Z,32.05
2023-05-13T08:22:20.258Z,32.05
2023-05-13T08:23:20.255Z,32.15
2023-05-13T08:24:20.235Z,32.15
2023-05-13T08:25:20.603Z,32.15
2023-05-13T08:26:20.232Z,32.05
2023-05-13T08:27:20.211Z,32.05
2023-05-13T08:28:20.200Z,31.95
2023-05-13T08:29:20.190Z,31.95
2023-05-13T08:30:20.173Z,31.95
2023-05-13T08:31:20.187Z,31.95
2023-05-13T08:32:20.265Z,31.85
2023-05-13T08:33:20.148Z,31.85
2023-05-13T08:34:20.131Z,31.75
2023-05-13T08:35:20.349Z,31.75
2023-05-13T08:36:20.112Z,31.75
2023-05-13T08:37:20.110Z,31.75
2023-05-13T08:38:20.251Z,31.85
2023-05-13T08:39:20.097Z,31.85
2023-05-13T08:40:20.059Z,31.85
2023-05-13T08:41:21.915Z,31.95
2023-05-13T08:42:20.047Z,31.95
2023-05-13T08:43:20.078Z,31.95
2023-05-13T08:44:20.197Z,31.85
2023-05-13T08:45:20.102Z,31.85
2023-05-13T08:46:20.039Z,31.75
2023-05-13T08:47:20.007Z,31.75
2023-05-13T08:48:19.990Z,31.75
2023-05-13T08:49:19.983Z,31.75
2023-05-13T08:50:20.010Z,31.75
2023-05-13T08:51:19.958Z,31.75
2023-05-13T08:52:19.945Z,31.75
2023-05-13T08:53:19.939Z,31.75
2023-05-13T08:54:21.148Z,31.85
2023-05-13T08:55:20.167Z,31.85
2023-05-13T08:56:19.941Z,31.75
2023-05-13T08:57:19.920Z,31.85
2023-05-13T08:58:19.880Z,31.75
2023-05-13T08:59:19.879Z,31.75
2023-05-13T09:00:21.556Z,31.65
2023-05-13T09:01:19.893Z,31.65
2023-05-13T09:02:20.004Z,31.45
2023-05-13T09:03:19.844Z,31.55
2023-05-13T09:04:19.823Z,31.55
2023-05-13T09:05:19.971Z,31.45
2023-05-13T09:06:19.802Z,31.55
2023-05-13T09:07:19.800Z,31.85
2023-05-13T09:08:19.935Z,31.95
2023-05-13T09:09:19.772Z,32.05
2023-05-13T09:10:19.915Z,32.25
2023-05-13T09:11:19.753Z,32.25
2023-05-13T09:12:19.740Z,32.25
2023-05-13T09:13:19.744Z,32.15
2023-05-13T09:14:19.888Z,32.15
2023-05-13T09:15:19.868Z,32.05
2023-05-13T09:16:19.772Z,32.05
2023-05-13T09:17:19.692Z,31.85
2023-05-13T09:18:19.860Z,31.75
2023-05-13T09:19:19.851Z,31.65
2023-05-13T09:20:19.901Z,31.45
2023-05-13T09:21:19.651Z,31.35
2023-05-13T09:22:19.638Z,31.25
2023-05-13T09:23:19.625Z,31.05
2023-05-13T09:24:19.613Z,31.05
2023-05-13T09:25:19.864Z,31.05
2023-05-13T09:26:19.628Z,30.85
2023-05-13T09:27:19.594Z,30.75
2023-05-13T09:28:19.567Z,30.65
2023-05-13T09:29:19.563Z,30.65
2023-05-13T09:30:19.546Z,30.55
2023-05-13T09:31:19.603Z,30.45
2023-05-13T09:32:19.697Z,30.35
2023-05-13T09:33:19.534Z,30.25
2023-05-13T09:34:19.502Z,30.25
2023-05-13T09:35:19.663Z,30.15
2023-05-13T09:36:19.499Z,30.05
2023-05-13T09:37:19.475Z,30.15
2023-05-13T09:38:19.607Z,30.15
2023-05-13T09:39:19.469Z,30.25
2023-05-13T09:40:19.562Z,30.35
2023-05-13T09:41:19.458Z,30.25
2023-05-13T09:42:19.445Z,30.35
2023-05-13T09:43:19.415Z,30.35
2023-05-13T09:44:19.565Z,30.25
2023-05-13T09:45:19.524Z,30.25
2023-05-13T09:46:19.404Z,30.25
2023-05-13T09:47:19.424Z,30.05
2023-05-13T09:48:19.366Z,30.05
2023-05-13T09:49:19.396Z,29.95
2023-05-13T09:50:19.806Z,29.95
2023-05-13T09:51:19.340Z,29.85
2023-05-13T09:52:19.333Z,29.95
2023-05-13T09:53:19.322Z,29.85
2023-05-13T09:54:19.330Z,29.75
2023-05-13T09:55:19.306Z,29.85
2023-05-13T09:56:19.281Z,29.75
2023-05-13T09:57:19.268Z,29.65
2023-05-13T09:58:19.260Z,29.65
2023-05-13T09:59:19.300Z,29.65
2023-05-13T10:00:31.790Z,29.75
2023-05-13T10:01:19.336Z,29.75
2023-05-13T10:02:19.218Z,29.75
2023-05-13T10:03:19.215Z,29.85
2023-05-13T10:04:19.330Z,30.15
2023-05-13T10:05:19.194Z,30.35
2023-05-13T10:06:19.178Z,30.75
2023-05-13T10:07:19.340Z,30.75
2023-05-13T10:08:19.154Z,30.65
2023-05-13T10:09:19.157Z,30.65
2023-05-13T10:10:19.205Z,30.55
2023-05-13T10:11:19.126Z,30.55
2023-05-13T10:12:19.114Z,30.45
2023-05-13T10:13:19.290Z,30.45
2023-05-13T10:14:19.114Z,30.35
2023-05-13T10:15:19.092Z,30.35
2023-05-13T10:16:19.125Z,30.35
2023-05-13T10:17:19.067Z,30.55
2023-05-13T10:18:19.126Z,30.65
2023-05-13T10:19:19.127Z,30.75
2023-05-13T10:20:19.082Z,30.75
2023-05-13T10:21:19.027Z,30.75
2023-05-13T10:22:19.016Z,30.75
2023-05-13T10:23:19.001Z,30.75
2023-05-13T10:24:19.140Z,30.65
2023-05-13T10:25:18.989Z,30.55
2023-05-13T10:26:18.978Z,30.55
2023-05-13T10:27:18.958Z,30.45
2023-05-13T10:28:18.949Z,30.35
2023-05-13T10:29:18.936Z,30.45
2023-05-13T10:30:19.068Z,30.35
2023-05-13T10:31:18.931Z,30.35
2023-05-13T10:32:18.955Z,30.35
2023-05-13T10:33:18.903Z,30.35
2023-05-13T10:34:18.881Z,30.35
2023-05-13T10:35:18.874Z,30.35
2023-05-13T10:36:19.018Z,30.35
2023-05-13T10:37:18.849Z,30.45
2023-05-13T10:38:18.842Z,30.55
2023-05-13T10:39:18.827Z,30.55
2023-05-13T10:40:18.837Z,30.45
2023-05-13T10:41:18.816Z,30.35
2023-05-13T10:42:18.856Z,30.25
2023-05-13T10:43:18.797Z,30.35
2023-05-13T10:44:18.785Z,30.35
2023-05-13T10:45:18.778Z,30.35
2023-05-13T10:46:18.781Z,30.35
2023-05-13T10:47:18.783Z,30.35
2023-05-13T10:48:18.894Z,30.24
2023-05-13T10:49:18.731Z,30.14
2023-05-13T10:50:18.754Z,30.24
2023-05-13T10:51:18.710Z,30.14
2023-05-13T10:52:18.689Z,30.14
2023-05-13T10:53:18.686Z,30.04
2023-05-13T10:54:18.672Z,30.04
2023-05-13T10:55:18.657Z,29.84
2023-05-13T10:56:18.646Z,29.34
2023-05-13T10:57:18.636Z,28.64
2023-05-13T10:58:18.763Z,28.54
2023-05-13T10:59:18.617Z,28.25
2023-05-13T11:00:18.610Z,27.94
2023-05-13T11:01:18.631Z,27.75
2023-05-13T11:02:18.621Z,27.45
2023-05-13T11:03:19.601Z,27.66
2023-05-13T11:04:18.581Z,27.56
2023-05-13T11:05:18.567Z,27.45
2023-05-13T11:06:18.568Z,27.36
2023-05-13T11:07:18.541Z,27.56
2023-05-13T11:08:18.526Z,27.45
2023-05-13T11:09:18.520Z,27.45
2023-05-13T11:10:18.583Z,27.45
2023-05-13T11:11:18.495Z,27.45
2023-05-13T11:12:18.498Z,27.56
2023-05-13T11:13:18.473Z,27.75
2023-05-13T11:14:18.689Z,27.95
2023-05-13T11:15:18.457Z,28.05
2023-05-13T11:16:18.490Z,28.16
2023-05-13T11:17:18.436Z,28.36
2023-05-13T11:18:18.421Z,28.45
2023-05-13T11:19:18.421Z,28.66
2023-05-13T11:20:18.410Z,28.75
2023-05-13T11:21:18.405Z,28.85
2023-05-13T11:22:18.371Z,29.05
2023-05-13T11:23:18.370Z,29.15
2023-05-13T11:24:18.356Z,29.15
2023-05-13T11:25:18.375Z,29.25
2023-05-13T11:26:18.333Z,29.35
2023-05-13T11:27:18.339Z,29.46
2023-05-13T11:28:18.314Z,29.55
2023-05-13T11:29:18.312Z,29.65
2023-05-13T11:30:18.293Z,29.65
2023-05-13T11:31:18.523Z,29.65
2023-05-13T11:32:18.275Z,29.75
2023-05-13T11:33:18.265Z,29.85
2023-05-13T11:34:18.252Z,29.85
2023-05-13T11:35:18.495Z,29.95
2023-05-13T11:36:18.227Z,29.95
2023-05-13T11:37:18.269Z,30.05
2023-05-13T11:38:18.219Z,30.05
2023-05-13T11:39:18.222Z,30.15
2023-05-13T11:40:18.189Z,30.15
2023-05-13T11:41:18.184Z,30.14
2023-05-13T11:42:18.168Z,30.24
2023-05-13T11:43:18.168Z,30.24
2023-05-13T11:44:18.149Z,30.24
2023-05-13T11:45:18.141Z,30.33
2023-05-13T11:46:18.153Z,30.33
2023-05-13T11:47:18.114Z,30.44
2023-05-13T11:48:18.264Z,30.44
2023-05-13T11:49:18.100Z,30.44
2023-05-13T11:50:18.086Z,30.54
2023-05-13T11:51:18.079Z,30.54
2023-05-13T11:52:18.067Z,30.54
2023-05-13T11:53:18.053Z,30.54
2023-05-13T11:54:18.204Z,30.63
2023-05-13T11:55:18.050Z,30.63
2023-05-13T11:56:18.018Z,30.63
2023-05-13T11:57:18.024Z,30.74
2023-05-13T11:58:18.004Z,30.74
2023-05-13T11:59:17.995Z,30.74
2023-05-13T12:00:18.140Z,30.74
2023-05-13T12:01:17.978Z,30.83
2023-05-13T12:02:18.019Z,30.83
2023-05-13T12:03:17.989Z,30.83
2023-05-13T12:04:17.943Z,30.93
2023-05-13T12:05:18.011Z,30.93
2023-05-13T12:06:18.044Z,30.93
2023-05-13T12:07:17.908Z,30.93
2023-05-13T12:08:17.892Z,31.04
2023-05-13T12:09:17.931Z,31.04
2023-05-13T12:10:17.875Z,31.04
2023-05-13T12:11:17.885Z,31.04
2023-05-13T12:12:17.909Z,31.04
2023-05-13T12:13:17.853Z,31.13
2023-05-13T12:14:17.834Z,31.04
2023-05-13T12:15:17.831Z,31.13
2023-05-13T12:16:17.860Z,31.13
2023-05-13T12:17:17.806Z,31.13
2023-05-13T12:18:17.805Z,31.13
2023-05-13T12:19:17.818Z,31.24
2023-05-13T12:20:17.783Z,31.24
2023-05-13T12:21:17.767Z,31.24
2023-05-13T12:22:17.753Z,31.24
2023-05-13T12:23:17.748Z,31.24
2023-05-13T12:24:17.733Z,31.34
2023-05-13T12:25:17.717Z,31.34
2023-05-13T12:26:17.716Z,31.34
2023-05-13T12:27:17.698Z,31.34
2023-05-13T12:28:17.899Z,31.34
2023-05-13T12:29:17.689Z,31.34
2023-05-13T12:30:17.673Z,31.43
2023-05-13T12:31:17.719Z,31.43
2023-05-13T12:32:17.650Z,31.43
2023-05-13T12:33:17.632Z,31.43
2023-05-13T12:34:17.636Z,31.43
2023-05-13T12:35:17.613Z,31.43
2023-05-13T12:36:17.707Z,31.54
2023-05-13T12:37:17.595Z,31.54
2023-05-13T12:38:17.581Z,31.54
2023-05-13T12:39:17.576Z,31.54
2023-05-13T12:40:17.564Z,31.54
2023-05-13T12:41:17.554Z,31.54
2023-05-13T12:42:17.541Z,31.54
2023-05-13T12:43:17.537Z,31.63
2023-05-13T12:44:17.661Z,31.63
2023-05-13T12:45:17.508Z,31.63
2023-05-13T12:46:17.531Z,31.63
2023-05-13T12:47:17.485Z,31.63
2023-05-13T12:48:17.485Z,31.63
2023-05-13T12:49:17.465Z,31.63
2023-05-13T12:50:17.469Z,31.63
2023-05-13T12:51:17.442Z,31.63
2023-05-13T12:52:17.446Z,31.73
2023-05-13T12:53:17.424Z,31.73